createdAt,value
2022-09-03T00:00:00.230Z,1000.57
2022-09-03T00:05:00.114Z,1000.53
2022-09-03T00:10:00.133Z,1000.44
2022-09-03T00:15:00.088Z,1000.38
2022-09-03T00:20:00.123Z,1000.33
2022-09-03T00:25:00.115Z,1000.39
2022-09-03T00:30:00.157Z,1000.32
2022-09-03T00:35:00.107Z,1000.39
2022-09-03T00:40:00.215Z,1000.41
2022-09-03T00:45:00.094Z,1000.42
2022-09-03T00:50:00.111Z,1000.43
2022-09-03T00:55:00.099Z,1000.4
2022-09-03T01:00:00.139Z,1000.4
2022-09-03T01:05:00.115Z,1000.36
2022-09-03T01:10:00.076Z,1000.34
2022-09-03T01:15:00.097Z,1000.3
2022-09-03T01:20:00.112Z,1000.33
2022-09-03T01:25:00.373Z,1000.39
2022-09-03T01:30:00.135Z,1000.37
2022-09-03T01:35:00.133Z,1000.43
2022-09-03T01:40:00.254Z,1000.47
2022-09-03T01:45:00.097Z,1000.47
2022-09-03T01:50:00.134Z,1000.44
2022-09-03T01:55:00.108Z,1000.41
2022-09-03T02:00:00.153Z,1000.4
2022-09-03T02:05:00.106Z,1000.49
2022-09-03T02:10:00.102Z,1000.45
2022-09-03T02:15:00.097Z,1000.29
2022-09-03T02:20:00.124Z,1000.35
2022-09-03T02:25:00.123Z,1000.33
2022-09-03T02:30:00.141Z,1000.36
2022-09-03T02:35:00.105Z,1000.36
2022-09-03T02:40:00.174Z,1000.42
2022-09-03T02:45:00.125Z,1000.39
2022-09-03T02:50:00.115Z,1000.38
2022-09-03T02:55:00.100Z,1000.44
2022-09-03T03:00:00.142Z,1000.37
2022-09-03T03:05:00.113Z,1000.28
2022-09-03T03:10:00.128Z,1000.31
2022-09-03T03:15:00.111Z,1000.23
2022-09-03T03:20:00.119Z,1000.14
2022-09-03T03:25:00.111Z,1000.21
2022-09-03T03:30:00.126Z,1000.21
2022-09-03T03:35:00.097Z,1000.25
2022-09-03T03:40:00.183Z,1000.3
2022-09-03T03:45:00.097Z,1000.32
2022-09-03T03:50:00.140Z,1000.34
2022-09-03T03:55:00.109Z,1000.4
2022-09-03T04:00:00.129Z,1000.27
2022-09-03T04:05:00.122Z,1000.23
2022-09-03T04:10:00.156Z,1000.18
2022-09-03T04:15:00.116Z,1000.22
2022-09-03T04:20:00.123Z,1000.18
2022-09-03T04:25:00.093Z,1000.19
2022-09-03T04:30:00.127Z,1000.17
2022-09-03T04:35:00.115Z,1000.11
2022-09-03T04:40:00.178Z,1000.16
2022-09-03T04:45:00.087Z,1000.2
2022-09-03T04:50:00.111Z,1000.16
2022-09-03T04:55:00.110Z,1000.22
2022-09-03T05:00:00.098Z,1000.2
2022-09-03T05:05:00.274Z,1000.19
2022-09-03T05:10:00.094Z,1000.24
2022-09-03T05:15:00.099Z,1000.18
2022-09-03T05:20:00.115Z,1000.17
2022-09-03T05:25:00.106Z,1000.22
2022-09-03T05:30:00.122Z,1000.28
2022-09-03T05:35:00.112Z,1000.17
2022-09-03T05:40:00.161Z,1000.27
2022-09-03T05:45:00.080Z,1000.39
2022-09-03T05:50:00.120Z,1000.29
2022-09-03T05:55:00.089Z,1000.32
2022-09-03T06:00:00.112Z,1000.41
2022-09-03T06:05:00.109Z,1000.39
2022-09-03T06:10:00.082Z,1000.33
2022-09-03T06:15:00.090Z,1000.42
2022-09-03T06:20:00.099Z,1000.29
2022-09-03T06:25:00.091Z,1000.46
2022-09-03T06:30:00.156Z,1000.39
2022-09-03T06:35:00.131Z,1000.42
2022-09-03T06:40:00.172Z,1000.45
2022-09-03T06:45:00.087Z,1000.49
2022-09-03T06:50:00.090Z,1000.53
2022-09-03T06:55:00.087Z,1000.55
2022-09-03T07:00:00.170Z,1000.58
2022-09-03T07:05:00.089Z,1000.43
2022-09-03T07:10:00.092Z,1000.55
2022-09-03T07:15:00.119Z,1000.59
2022-09-03T07:20:00.097Z,1000.52
2022-09-03T07:25:00.116Z,1000.6
2022-09-03T07:30:00.158Z,1000.58
2022-09-03T07:35:00.103Z,1000.58
2022-09-03T07:40:00.200Z,1000.41
2022-09-03T07:45:00.123Z,1000.45
2022-09-03T07:50:00.137Z,1000.5
2022-09-03T07:55:00.099Z,1000.53
2022-09-03T08:00:00.121Z,1000.51
2022-09-03T08:05:00.105Z,1000.47
2022-09-03T08:10:00.086Z,1000.51
2022-09-03T08:15:00.096Z,1000.52
2022-09-03T08:20:00.174Z,1000.45
2022-09-03T08:25:00.099Z,1000.43
2022-09-03T08:30:00.152Z,1000.45
2022-09-03T08:35:00.101Z,1000.47
2022-09-03T08:40:00.145Z,1000.47
2022-09-03T08:45:00.105Z,1000.44
2022-09-03T08:50:00.106Z,1000.39
2022-09-03T08:55:00.087Z,1000.45
2022-09-03T09:00:00.196Z,1000.43
2022-09-03T09:05:00.092Z,1000.36
2022-09-03T09:10:00.107Z,1000.37
2022-09-03T09:15:00.104Z,1000.38
2022-09-03T09:20:00.105Z,1000.21
2022-09-03T09:25:00.091Z,1000.2
2022-09-03T09:30:00.131Z,1000.05
2022-09-03T09:35:00.143Z,1000.1
2022-09-03T09:40:00.199Z,1000.08
2022-09-03T09:45:00.096Z,1000.06
2022-09-03T09:50:00.097Z,999.98
2022-09-03T09:55:00.089Z,999.98
2022-09-03T10:00:00.137Z,999.93
2022-09-03T10:05:00.111Z,999.87
2022-09-03T10:10:00.093Z,999.81
2022-09-03T10:15:00.096Z,999.83
2022-09-03T10:20:00.089Z,999.79
2022-09-03T10:25:00.107Z,999.84
2022-09-03T10:30:00.138Z,999.81
2022-09-03T10:35:00.095Z,999.69
2022-09-03T10:40:00.137Z,999.81
2022-09-03T10:45:00.084Z,999.69
2022-09-03T10:50:00.087Z,999.62
2022-09-03T10:55:00.097Z,999.71
2022-09-03T11:00:00.146Z,999.63
2022-09-03T11:05:00.083Z,999.57
2022-09-03T11:10:00.089Z,999.62
2022-09-03T11:15:00.089Z,999.53
2022-09-03T11:20:00.143Z,999.45
2022-09-03T11:25:00.106Z,999.37
2022-09-03T11:30:00.135Z,999.43
2022-09-03T11:35:00.107Z,999.38
2022-09-03T11:40:00.180Z,999.47
2022-09-03T11:45:00.090Z,999.42
2022-09-03T11:50:00.119Z,999.42
2022-09-03T11:55:00.085Z,999.51
2022-09-03T12:00:00.111Z,999.28
2022-09-03T12:05:00.124Z,999.31
2022-09-03T12:10:00.080Z,999.22
2022-09-03T12:15:00.106Z,999
2022-09-03T12:20:00.079Z,999.08
2022-09-03T12:25:00.080Z,998.97
2022-09-03T12:30:00.327Z,998.92
2022-09-03T12:35:00.083Z,998.9
2022-09-03T12:40:08.513Z,998.89
2022-09-03T12:45:00.095Z,998.91
2022-09-03T12:50:00.121Z,998.81
2022-09-03T12:55:00.086Z,998.85
2022-09-03T13:00:00.118Z,998.79
2022-09-03T13:05:00.103Z,998.67
2022-09-03T13:10:00.088Z,998.69
2022-09-03T13:15:00.091Z,998.52
2022-09-03T13:20:00.108Z,998.57
2022-09-03T13:25:00.104Z,998.57
2022-09-03T13:50:00.152Z,998.54
2022-09-03T13:55:00.117Z,998.29
2022-09-03T14:00:00.164Z,998.29
2022-09-03T14:05:00.109Z,998.23
2022-09-03T14:10:00.166Z,998.2
2022-09-03T14:15:00.102Z,998.17
2022-09-03T14:20:00.121Z,998.12
2022-09-03T14:25:00.109Z,998.12
2022-09-03T14:30:00.144Z,998.22
2022-09-03T14:35:00.106Z,998.19
2022-09-03T14:40:02.203Z,998.13
2022-09-03T14:45:00.102Z,998.23
2022-09-03T14:50:00.117Z,998.03
2022-09-03T14:55:00.122Z,998.07
2022-09-03T15:00:00.131Z,998.07
2022-09-03T15:05:00.108Z,998.12
2022-09-03T15:10:00.117Z,998.1
2022-09-03T15:15:00.150Z,998.11
2022-09-03T15:20:00.137Z,998.25
2022-09-03T15:25:00.102Z,998.19
2022-09-03T15:30:00.212Z,998.28
2022-09-03T15:35:00.095Z,998.13
2022-09-03T15:40:00.323Z,998.1
2022-09-03T15:45:00.092Z,998.07
2022-09-03T15:50:00.100Z,998.1
2022-09-03T15:55:00.119Z,998.02
2022-09-03T16:00:00.157Z,998.07
2022-09-03T16:05:00.098Z,998.07
2022-09-03T16:10:23.040Z,998.11
2022-09-03T16:15:00.098Z,998.18
2022-09-03T16:20:00.134Z,998.1
2022-09-03T16:25:00.101Z,998.11
2022-09-03T16:30:00.121Z,998.22
2022-09-03T16:35:00.097Z,998.26
2022-09-03T16:40:00.216Z,998.31
2022-09-03T16:45:00.096Z,998.18
2022-09-03T16:50:00.077Z,998.23
2022-09-03T16:55:00.102Z,998.13
2022-09-03T17:00:00.169Z,998.1
2022-09-03T17:05:00.089Z,998.17
2022-09-03T17:10:00.126Z,998.2
2022-09-03T17:15:00.096Z,998.22
2022-09-03T17:20:00.089Z,998.23
2022-09-03T17:25:00.123Z,998.25
2022-09-03T17:30:00.092Z,998.26
2022-09-03T17:35:00.090Z,998.27
2022-09-03T17:40:00.263Z,998.3
2022-09-03T17:45:00.101Z,998.33
2022-09-03T17:50:00.082Z,998.38
2022-09-03T17:55:00.111Z,998.4
2022-09-03T18:00:00.163Z,998.34
2022-09-03T18:05:00.115Z,998.52
2022-09-03T18:10:00.175Z,998.6
2022-09-03T18:15:00.144Z,998.6
2022-09-03T18:20:00.095Z,998.62
2022-09-03T18:25:00.121Z,998.71
2022-09-03T18:30:00.104Z,998.65
2022-09-03T18:35:00.101Z,998.77
2022-09-03T18:40:00.220Z,998.75
2022-09-03T18:45:18.545Z,998.78
2022-09-03T18:50:00.090Z,998.9
2022-09-03T18:55:08.689Z,998.83
2022-09-03T19:00:00.115Z,998.93
2022-09-03T19:05:00.104Z,998.94
2022-09-03T19:10:00.109Z,998.92
2022-09-03T19:15:00.167Z,999.01
2022-09-03T19:20:00.092Z,999.05
2022-09-03T19:25:00.113Z,999
2022-09-03T19:30:00.113Z,999.07
2022-09-03T19:35:00.120Z,998.99
2022-09-03T19:40:00.248Z,998.99
2022-09-03T19:45:00.169Z,999.13
2022-09-03T19:50:00.101Z,999.05
2022-09-03T19:55:00.111Z,999.11
2022-09-03T20:00:00.146Z,999.14
2022-09-03T20:05:00.116Z,999.17
2022-09-03T20:10:00.147Z,999.14
2022-09-03T20:15:00.112Z,999.21
2022-09-03T20:20:00.102Z,999.29
2022-09-03T20:25:00.113Z,999.3
2022-09-03T20:30:00.175Z,999.33
2022-09-03T20:35:00.195Z,999.31
2022-09-03T20:40:00.267Z,999.28
2022-09-03T20:45:00.108Z,999.4
2022-09-03T20:50:00.102Z,999.4
2022-09-03T20:55:00.123Z,999.46
2022-09-03T21:00:00.160Z,999.44
2022-09-03T21:05:00.130Z,999.42
2022-09-03T21:10:00.122Z,999.45
2022-09-03T21:15:00.111Z,999.45
2022-09-03T21:20:00.101Z,999.58
2022-09-03T21:25:00.114Z,999.55
2022-09-03T21:30:01.021Z,999.59
2022-09-03T21:35:00.085Z,999.6
2022-09-03T21:40:00.174Z,999.57
2022-09-03T21:45:00.081Z,999.64
2022-09-03T21:50:00.100Z,999.61
2022-09-03T21:55:00.103Z,999.62
2022-09-03T22:00:00.255Z,999.69
2022-09-03T22:05:00.086Z,999.66
2022-09-03T22:10:00.139Z,999.63
2022-09-03T22:15:00.094Z,999.68
2022-09-03T22:20:00.092Z,999.7
2022-09-03T22:25:00.143Z,999.7
2022-09-03T22:30:00.086Z,999.71
2022-09-03T22:35:00.142Z,999.73
2022-09-03T22:40:00.196Z,999.73
2022-09-03T22:45:00.092Z,999.69
2022-09-03T22:50:00.093Z,999.75
2022-09-03T22:55:00.116Z,999.71
2022-09-03T23:00:00.150Z,999.67
2022-09-03T23:05:00.097Z,999.6
2022-09-03T23:10:00.099Z,999.67
2022-09-03T23:15:00.101Z,999.84
2022-09-03T23:20:00.089Z,999.75
2022-09-03T23:25:00.098Z,999.77
2022-09-03T23:30:00.099Z,999.77
2022-09-03T23:35:00.082Z,999.91
2022-09-03T23:40:00.194Z,999.88
2022-09-03T23:45:00.160Z,999.88
2022-09-03T23:50:00.085Z,999.77
2022-09-03T23:55:00.104Z,999.9
